Time;durP1;ratioP1;P1;durP2;ratioP2;P2;SDS_P1;SDS_P2;PMS_P1;PMS_P2;Temp;Humidity;BMP_temperature;BMP_pressure;BME280_temperature;BME280_humidity;BME280_pressure;Samples;Min_cycle;Max_cycle;Signal;HPM_P1;HPM_P2
2021/04/04 00:01:46;;;;;;;;;;;;;;;;;;5018825;28;20355;-83
2021/04/04 00:04:11;;;;;;;;;;;;;;;;;;5052146;28;19912;-84
2021/04/04 00:06:36;;;;;;;;;;;;;;;;;;5019155;28;19920;-83
2021/04/04 00:09:02;;;;;;;;;;;;;;;;;;5019192;28;19909;-83
2021/04/04 00:11:28;;;;;;;;;;;;;;;;;;5032291;28;19971;-84
2021/04/04 00:13:53;;;;;;;;;;;;;;;;;;5036583;28;19909;-84
2021/04/04 00:16:19;;;;;;;;;;;;;;;;;;5019118;28;19963;-83
2021/04/04 00:18:44;;;;;;;;;;;;;;;;;;5018626;28;19958;-83
2021/04/04 00:21:09;;;;;;;;;;;;;;;;;;5018726;28;19909;-84
2021/04/04 00:23:35;;;;;;;;;;;;;;;;;;5018649;28;19915;-83
2021/04/04 00:26:00;;;;;;;;;;;;;;;;;;5035162;28;20003;-83
2021/04/04 00:28:25;;;;;;;;;;;;;;;;;;5035250;28;20313;-83
2021/04/04 00:30:51;;;;;;;;;;;;;;;;;;5051955;28;19999;-83
2021/04/04 00:33:16;;;;;;;;;;;;;;;;;;5034607;28;19994;-83
2021/04/04 00:35:41;;;;;;;;;;;;;;;;;;5017395;28;19917;-82
2021/04/04 00:38:09;;;;;;;;;;;;;;;;;;5031718;28;19917;-83
2021/04/04 00:40:35;;;;;;;;;;;;;;;;;;5031313;28;19916;-83
2021/04/04 00:43:00;;;;;;;;;;;;;;;;;;5040627;28;19908;-82
2021/04/04 00:45:32;;;;;;;;;;;;;;;;;;5018511;28;19909;-83
2021/04/04 00:47:58;;;;;;;;;;;;;;;;;;5051130;28;19909;-82
2021/04/04 00:50:24;;;;;;;;;;;;;;;;;;5018529;28;19908;-83
2021/04/04 00:52:53;;;;;;;;;;;;;;;;;;5035546;28;20351;-84
2021/04/04 00:55:19;;;;;;;;;;;;;;;;;;5012775;28;19924;-83
2021/04/04 00:57:44;;;;;;;;;;;;;;;;;;5031461;28;19909;-83
2021/04/04 01:00:11;;;;;;;;;;;;;;;;;;5031029;28;19916;-84
2021/04/04 01:02:37;;;;;;;;;;;;;;;;;;5014469;28;19916;-84
2021/04/04 01:05:03;;;;;;;;;;;;;;;;;;5031482;28;19913;-83
2021/04/04 01:07:29;;;;;;;;;;;;;;;;;;5031391;28;19909;-84
2021/04/04 01:09:56;;;;;;;;;;;;;;;;;;5031407;28;19909;-84
2021/04/04 01:12:25;;;;;;;;;;;;;;;;;;5048053;28;19955;-84
2021/04/04 01:15:03;;;;;;;;;;;;;;;;;;5059384;28;19908;-84
2021/04/04 01:17:28;;;;;;;;;;;;;;;;;;5034457;28;20283;-84
2021/04/04 01:20:18;;;;;;;;;;;;;;;;;;5051113;28;19908;-84
2021/04/04 01:22:46;;;;;;;;;;;;;;;;;;5027806;28;19912;-84
2021/04/04 01:25:19;;;;;;;;;;;;;;;;;;5049452;28;19913;-84
2021/04/04 01:27:45;;;;;;;;;;;;;;;;;;5033134;28;19966;-83
2021/04/04 01:30:12;;;;;;;;;;;;;;;;;;5032810;28;19913;-84
2021/04/04 01:32:38;;;;;;;;;;;;;;;;;;5032601;28;19948;-83
2021/04/04 01:35:12;;;;;;;;;;;;;;;;;;5033125;28;19967;-83
2021/04/04 01:37:39;;;;;;;;;;;;;;;;;;5034049;28;20414;-84
2021/04/04 01:40:24;;;;;;;;;;;;;;;;;;5033870;28;19962;-84
2021/04/04 01:42:51;;;;;;;;;;;;;;;;;;5050389;28;19915;-84
2021/04/04 01:45:17;;;;;;;;;;;;;;;;;;5050525;28;19913;-85
2021/04/04 01:47:43;;;;;;;;;;;;;;;;;;5018106;28;20311;-84
2021/04/04 01:50:09;;;;;;;;;;;;;;;;;;5050301;28;19956;-84
2021/04/04 01:52:35;;;;;;;;;;;;;;;;;;5019975;28;19915;-84
2021/04/04 01:55:00;;;;;;;;;;;;;;;;;;5021842;28;19909;-84
2021/04/04 01:57:27;;;;;;;;;;;;;;;;;;5038641;28;19909;-84
2021/04/04 01:59:53;;;;;;;;;;;;;;;;;;5021312;28;19913;-84
2021/04/04 02:02:18;;;;;;;;;;;;;;;;;;5020483;28;20042;-84
2021/04/04 02:04:44;;;;;;;;;;;;;;;;;;5021565;28;20013;-84
2021/04/04 02:07:10;;;;;;;;;;;;;;;;;;5038329;28;20384;-84
2021/04/04 02:09:36;;;;;;;;;;;;;;;;;;5021277;28;19908;-84
2021/04/04 02:12:01;;;;;;;;;;;;;;;;;;5038170;28;19908;-84
2021/04/04 02:14:27;;;;;;;;;;;;;;;;;;5021153;28;19912;-84
2021/04/04 02:16:52;;;;;;;;;;;;;;;;;;5038011;28;20394;-83
2021/04/04 02:19:20;;;;;;;;;;;;;;;;;;5037651;28;19959;-84
2021/04/04 02:21:49;;;;;;;;;;;;;;;;;;5037746;28;19913;-84
2021/04/04 02:24:15;;;;;;;;;;;;;;;;;;5037311;28;19923;-84
2021/04/04 02:26:40;;;;;;;;;;;;;;;;;;5019257;28;19913;-84
2021/04/04 02:29:05;;;;;;;;;;;;;;;;;;5017315;28;19951;-84
2021/04/04 02:31:35;;;;;;;;;;;;;;;;;;5017804;28;19956;-84
2021/04/04 02:34:02;;;;;;;;;;;;;;;;;;5017957;28;20382;-84
2021/04/04 02:36:28;;;;;;;;;;;;;;;;;;5034163;28;19978;-84
2021/04/04 02:38:57;;;;;;;;;;;;;;;;;;5019618;28;19908;-84
2021/04/04 02:41:23;;;;;;;;;;;;;;;;;;5053859;28;19978;-84
2021/04/04 02:43:49;;;;;;;;;;;;;;;;;;5041254;28;19913;-85
2021/04/04 02:46:16;;;;;;;;;;;;;;;;;;5013765;28;19920;-84
2021/04/04 02:48:42;;;;;;;;;;;;;;;;;;5037432;28;19912;-84
2021/04/04 02:51:09;;;;;;;;;;;;;;;;;;5037265;28;20451;-83
2021/04/04 02:53:42;;;;;;;;;;;;;;;;;;5053885;28;19908;-84
2021/04/04 02:56:08;;;;;;;;;;;;;;;;;;5037081;28;20279;-84
2021/04/04 02:58:33;;;;;;;;;;;;;;;;;;5036938;28;19916;-84
2021/04/04 03:01:00;;;;;;;;;;;;;;;;;;5036778;28;19963;-84
2021/04/04 03:03:27;;;;;;;;;;;;;;;;;;5052761;28;19913;-83
2021/04/04 03:05:54;;;;;;;;;;;;;;;;;;5020778;28;20398;-84
2021/04/04 03:08:20;;;;;;;;;;;;;;;;;;5020693;28;19908;-84
2021/04/04 03:10:50;;;;;;;;;;;;;;;;;;5016140;28;19995;-84
2021/04/04 03:13:17;;;;;;;;;;;;;;;;;;5033164;28;19932;-84
2021/04/04 03:15:43;;;;;;;;;;;;;;;;;;5053110;28;19919;-83
2021/04/04 03:18:08;;;;;;;;;;;;;;;;;;5030520;28;19923;-84
2021/04/04 03:20:34;;;;;;;;;;;;;;;;;;5016757;28;19909;-83
2021/04/04 03:22:59;;;;;;;;;;;;;;;;;;5033406;28;19956;-83
2021/04/04 03:25:25;;;;;;;;;;;;;;;;;;5033298;28;19966;-83
2021/04/04 03:27:50;;;;;;;;;;;;;;;;;;5016658;28;19909;-83
2021/04/04 03:33:04;;;;;;;;;;;;;;;;;;5033013;28;19913;-83
2021/04/04 03:35:31;;;;;;;;;;;;;;;;;;5032964;28;19913;-83
2021/04/04 03:37:57;;;;;;;;;;;;;;;;;;5045531;28;19948;-83
2021/04/04 03:40:22;;;;;;;;;;;;;;;;;;5035565;28;20297;-83
2021/04/04 03:42:48;;;;;;;;;;;;;;;;;;5032231;28;19919;-83
2021/04/04 03:45:15;;;;;;;;;;;;;;;;;;5016196;28;19916;-82
2021/04/04 03:47:40;;;;;;;;;;;;;;;;;;5033215;28;20008;-82
2021/04/04 03:50:05;;;;;;;;;;;;;;;;;;5016174;28;20008;-83
2021/04/04 03:52:32;;;;;;;;;;;;;;;;;;5019313;28;19909;-83
2021/04/04 03:54:58;;;;;;;;;;;;;;;;;;5019561;28;19912;-83
2021/04/04 03:57:24;;;;;;;;;;;;;;;;;;5019149;28;19908;-83
2021/04/04 03:59:49;;;;;;;;;;;;;;;;;;5036030;28;19908;-84
2021/04/04 04:02:15;;;;;;;;;;;;;;;;;;5023871;28;19912;-81
2021/04/04 04:04:40;;;;;;;;;;;;;;;;;;5035359;28;20017;-83
2021/04/04 04:07:05;;;;;;;;;;;;;;;;;;5052523;28;19915;-82
2021/04/04 04:09:31;;;;;;;;;;;;;;;;;;5052576;28;19909;-83
2021/04/04 04:11:56;;;;;;;;;;;;;;;;;;5035003;28;19913;-84
2021/04/04 04:14:21;;;;;;;;;;;;;;;;;;5043919;28;20255;-83
2021/04/04 04:16:47;;;;;;;;;;;;;;;;;;5015935;28;19919;-83
2021/04/04 04:19:13;;;;;;;;;;;;;;;;;;5032169;28;19915;-86
2021/04/04 04:21:39;;;;;;;;;;;;;;;;;;5015733;28;19920;-84
2021/04/04 04:24:05;;;;;;;;;;;;;;;;;;5015521;28;19909;-83
2021/04/04 04:26:32;;;;;;;;;;;;;;;;;;5031879;28;19958;-84
2021/04/04 04:28:57;;;;;;;;;;;;;;;;;;5015352;28;19952;-84
2021/04/04 04:31:28;;;;;;;;;;;;;;;;;;5031869;28;20347;-84
2021/04/04 04:33:54;;;;;;;;;;;;;;;;;;5032284;28;19917;-84
2021/04/04 04:36:19;;;;;;;;;;;;;;;;;;5015437;28;19963;-84
2021/04/04 04:38:45;;;;;;;;;;;;;;;;;;5016470;28;19956;-83
2021/04/04 04:41:11;;;;;;;;;;;;;;;;;;5031043;28;19909;-84
2021/04/04 04:43:37;;;;;;;;;;;;;;;;;;5025607;28;19924;-84
2021/04/04 04:46:03;;;;;;;;;;;;;;;;;;5015323;28;19924;-84
2021/04/04 04:48:30;;;;;;;;;;;;;;;;;;5031798;28;19963;-83
2021/04/04 04:50:55;;;;;;;;;;;;;;;;;;5031623;28;19916;-83
2021/04/04 04:53:20;;;;;;;;;;;;;;;;;;5031541;28;19909;-84
2021/04/04 04:55:46;;;;;;;;;;;;;;;;;;5031369;28;19908;-84
2021/04/04 04:58:12;;;;;;;;;;;;;;;;;;5031640;28;19935;-84
2021/04/04 05:00:37;;;;;;;;;;;;;;;;;;5014995;28;19913;-84
2021/04/04 05:03:04;;;;;;;;;;;;;;;;;;5039083;28;19920;-83
2021/04/04 05:05:29;;;;;;;;;;;;;;;;;;5022035;28;19917;-84
2021/04/04 05:07:55;;;;;;;;;;;;;;;;;;5031530;28;19915;-84
2021/04/04 05:10:21;;;;;;;;;;;;;;;;;;5014567;28;19913;-84
2021/04/04 05:12:50;;;;;;;;;;;;;;;;;;5016095;28;19913;-83
2021/04/04 05:15:16;;;;;;;;;;;;;;;;;;5029637;28;19912;-85
2021/04/04 05:17:42;;;;;;;;;;;;;;;;;;5034506;28;19912;-83
2021/04/04 05:20:08;;;;;;;;;;;;;;;;;;5051338;28;19963;-82
2021/04/04 05:22:33;;;;;;;;;;;;;;;;;;5034253;28;19917;-82
2021/04/04 05:24:59;;;;;;;;;;;;;;;;;;5034055;28;19909;-82
2021/04/04 05:27:24;;;;;;;;;;;;;;;;;;5034147;28;19908;-81
2021/04/04 05:29:49;;;;;;;;;;;;;;;;;;5050826;28;19970;-84
2021/04/04 05:32:14;;;;;;;;;;;;;;;;;;5034106;28;19919;-84
2021/04/04 05:34:41;;;;;;;;;;;;;;;;;;5034518;28;19919;-84
2021/04/04 05:37:07;;;;;;;;;;;;;;;;;;5034334;28;19908;-83
2021/04/04 05:39:33;;;;;;;;;;;;;;;;;;5048405;28;19978;-84
2021/04/04 05:41:59;;;;;;;;;;;;;;;;;;5051068;28;20007;-83
2021/04/04 05:44:28;;;;;;;;;;;;;;;;;;5035002;28;19909;-90
2021/04/04 05:46:58;;;;;;;;;;;;;;;;;;5052156;28;19909;-85
2021/04/04 05:49:40;;;;;;;;;;;;;;;;;;5034865;28;19908;-86
2021/04/04 05:52:15;;;;;;;;;;;;;;;;;;5019546;28;19909;-90
2021/04/04 05:54:52;;;;;;;;;;;;;;;;;;5035327;28;19980;-88
2021/04/04 05:57:24;;;;;;;;;;;;;;;;;;5035637;28;20375;-89
2021/04/04 05:59:56;;;;;;;;;;;;;;;;;;5035763;28;19909;-89
2021/04/04 06:02:41;;;;;;;;;;;;;;;;;;5035447;28;19913;-91
2021/04/04 06:05:15;;;;;;;;;;;;;;;;;;5027859;28;19909;-89
2021/04/04 06:07:50;;;;;;;;;;;;;;;;;;5034398;28;19909;-84
2021/04/04 06:10:17;;;;;;;;;;;;;;;;;;5050835;28;19912;-86
2021/04/04 06:12:57;;;;;;;;;;;;;;;;;;5018247;28;19931;-88
2021/04/04 06:15:26;;;;;;;;;;;;;;;;;;5034544;28;19919;-86
2021/04/04 06:17:54;;;;;;;;;;;;;;;;;;5034256;28;19967;-82
2021/04/04 06:20:33;;;;;;;;;;;;;;;;;;5034593;28;19959;-88
2021/04/04 06:23:05;;;;;;;;;;;;;;;;;;5017834;28;20314;-84
2021/04/04 06:25:53;;;;;;;;;;;;;;;;;;5017651;28;19915;-85
2021/04/04 06:28:38;;;;;;;;;;;;;;;;;;5023177;28;19920;-86
2021/04/04 06:31:08;;;;;;;;;;;;;;;;;;5033987;28;20054;-84
2021/04/04 06:33:36;;;;;;;;;;;;;;;;;;5024690;28;20267;-84
2021/04/04 06:36:03;;;;;;;;;;;;;;;;;;5030448;28;19909;-84
2021/04/04 06:38:46;;;;;;;;;;;;;;;;;;5049417;28;19921;-86
2021/04/04 06:41:19;;;;;;;;;;;;;;;;;;5045068;28;19958;-83
2021/04/04 06:43:50;;;;;;;;;;;;;;;;;;5048778;28;19923;-84
2021/04/04 06:46:34;;;;;;;;;;;;;;;;;;5055235;28;19908;-81
2021/04/04 06:49:06;;;;;;;;;;;;;;;;;;5053766;28;20003;-82
2021/04/04 06:51:38;;;;;;;;;;;;;;;;;;5019830;28;20397;-81
2021/04/04 06:54:05;;;;;;;;;;;;;;;;;;5036847;28;19908;-81
2021/04/04 06:56:49;;;;;;;;;;;;;;;;;;5053409;28;20366;-82
2021/04/04 06:59:15;;;;;;;;;;;;;;;;;;5053391;28;19909;-82
2021/04/04 07:02:00;;;;;;;;;;;;;;;;;;5048602;28;19963;-82
2021/04/04 07:04:32;;;;;;;;;;;;;;;;;;5052980;28;19996;-82
2021/04/04 07:06:57;;;;;;;;;;;;;;;;;;5053733;28;19920;-82
2021/04/04 07:09:29;;;;;;;;;;;;;;;;;;5069949;28;19909;-82
2021/04/04 07:12:03;;;;;;;;;;;;;;;;;;5053530;28;19913;-81
2021/04/04 07:14:38;;;;;;;;;;;;;;;;;;5058999;28;19916;-82
2021/04/04 07:17:16;;;;;;;;;;;;;;;;;;5033528;28;20000;-81
2021/04/04 07:20:00;;;;;;;;;;;;;;;;;;5033111;28;19912;-82
2021/04/04 07:22:34;;;;;;;;;;;;;;;;;;5032860;28;19917;-81
2021/04/04 07:25:05;;;;;;;;;;;;;;;;;;5033457;28;19991;-82
2021/04/04 07:27:42;;;;;;;;;;;;;;;;;;5033735;28;20007;-81
2021/04/04 07:30:29;;;;;;;;;;;;;;;;;;5033049;28;20016;-82
2021/04/04 07:32:55;;;;;;;;;;;;;;;;;;5032950;28;19909;-82
2021/04/04 07:35:21;;;;;;;;;;;;;;;;;;5016326;28;19909;-83
2021/04/04 07:37:47;;;;;;;;;;;;;;;;;;5033298;28;19908;-83
2021/04/04 07:40:14;;;;;;;;;;;;;;;;;;5016142;28;19920;-83
2021/04/04 07:42:41;;;;;;;;;;;;;;;;;;5039653;28;20007;-83
2021/04/04 07:45:10;;;;;;;;;;;;;;;;;;5069895;28;19915;-83
2021/04/04 07:47:55;;;;;;;;;;;;;;;;;;5036147;28;19923;-91
2021/04/04 07:50:33;;;;;;;;;;;;;;;;;;5036131;28;19956;-90
2021/04/04 07:53:17;;;;;;;;;;;;;;;;;;5020945;28;19917;-90
2021/04/04 07:55:45;;;;;;;;;;;;;;;;;;5037159;28;19970;-91
2021/04/04 07:58:25;;;;;;;;;;;;;;;;;;5036921;28;19915;-91
2021/04/04 08:01:02;;;;;;;;;;;;;;;;;;5020677;28;20003;-91
2021/04/04 08:03:58;;;;;;;;;;;;;;;;;;5020684;28;19912;-91
2021/04/04 08:06:26;;;;;;;;;;;;;;;;;;5020462;28;20034;-91
2021/04/04 08:09:02;;;;;;;;;;;;;;;;;;5020791;28;19908;-89
2021/04/04 08:11:49;;;;;;;;;;;;;;;;;;5036804;28;19935;-89
2021/04/04 08:14:17;;;;;;;;;;;;;;;;;;5036119;28;19913;-89
2021/04/04 08:16:51;;;;;;;;;;;;;;;;;;5036709;28;19909;-91
2021/04/04 08:19:17;;;;;;;;;;;;;;;;;;5036934;28;19990;-89
2021/04/04 08:21:47;;;;;;;;;;;;;;;;;;5036665;28;20392;-89
2021/04/04 08:24:35;;;;;;;;;;;;;;;;;;5036404;28;19932;-92
2021/04/04 08:27:03;;;;;;;;;;;;;;;;;;5029126;28;19908;-90
2021/04/04 08:29:36;;;;;;;;;;;;;;;;;;5036076;28;19987;-86
2021/04/04 08:32:07;;;;;;;;;;;;;;;;;;5035036;28;20382;-84
2021/04/04 08:34:36;;;;;;;;;;;;;;;;;;5039180;28;19913;-85
2021/04/04 08:37:14;;;;;;;;;;;;;;;;;;5019145;28;19919;-80
2021/04/04 08:39:39;;;;;;;;;;;;;;;;;;5018789;28;20271;-84
2021/04/04 08:42:05;;;;;;;;;;;;;;;;;;5035682;28;19916;-84
2021/04/04 08:44:36;;;;;;;;;;;;;;;;;;5052076;28;19913;-84
2021/04/04 08:47:15;;;;;;;;;;;;;;;;;;5051822;28;19913;-85
2021/04/04 08:49:40;;;;;;;;;;;;;;;;;;5051706;28;19909;-83
2021/04/04 08:52:12;;;;;;;;;;;;;;;;;;5034948;28;19923;-85
2021/04/04 08:54:39;;;;;;;;;;;;;;;;;;5034897;28;19971;-84
2021/04/04 08:57:05;;;;;;;;;;;;;;;;;;5022612;28;19959;-83
2021/04/04 08:59:32;;;;;;;;;;;;;;;;;;5014919;28;19920;-85
2021/04/04 09:02:03;;;;;;;;;;;;;;;;;;5015049;28;19913;-83
2021/04/04 09:04:28;;;;;;;;;;;;;;;;;;5034125;28;19919;-83
2021/04/04 09:06:56;;;;;;;;;;;;;;;;;;5034501;28;19909;-81
2021/04/04 09:09:23;;;;;;;;;;;;;;;;;;5018090;28;19916;-87
2021/04/04 09:11:54;;;;;;;;;;;;;;;;;;5035227;28;20405;-86
2021/04/04 09:14:22;;;;;;;;;;;;;;;;;;5018998;28;19909;-84
2021/04/04 09:16:51;;;;;;;;;;;;;;;;;;5018555;28;19950;-87
2021/04/04 09:19:16;;;;;;;;;;;;;;;;;;5017834;28;19956;-83
2021/04/04 09:21:41;;;;;;;;;;;;;;;;;;5017963;28;19956;-82
2021/04/04 09:24:08;;;;;;;;;;;;;;;;;;5017657;28;20346;-79
2021/04/04 09:26:34;;;;;;;;;;;;;;;;;;5034528;28;19913;-78
2021/04/04 09:28:59;;;;;;;;;;;;;;;;;;5017838;28;19916;-78
2021/04/04 09:31:25;;;;;;;;;;;;;;;;;;5033938;28;19951;-78
2021/04/04 09:33:56;;;;;;;;;;;;;;;;;;5050634;28;19920;-78
2021/04/04 09:36:22;;;;;;;;;;;;;;;;;;5033378;28;19913;-78
2021/04/04 09:38:47;;;;;;;;;;;;;;;;;;5033048;28;19923;-77
2021/04/04 09:41:12;;;;;;;;;;;;;;;;;;5033969;28;19923;-79
2021/04/04 09:43:58;;;;;;;;;;;;;;;;;;5014227;28;19999;-79
2021/04/04 09:46:23;;;;;;;;;;;;;;;;;;5030613;28;19909;-77
2021/04/04 09:48:51;;;;;;;;;;;;;;;;;;5031387;28;19913;-78
2021/04/04 09:51:16;;;;;;;;;;;;;;;;;;5030493;28;19920;-79
2021/04/04 09:53:45;;;;;;;;;;;;;;;;;;5030959;28;19913;-78
2021/04/04 09:56:12;;;;;;;;;;;;;;;;;;5030878;28;19909;-78
2021/04/04 09:58:38;;;;;;;;;;;;;;;;;;5047222;28;20800;-79
2021/04/04 10:01:03;;;;;;;;;;;;;;;;;;5030880;28;19971;-78
2021/04/04 10:03:28;;;;;;;;;;;;;;;;;;5016977;28;20386;-79
2021/04/04 10:05:53;;;;;;;;;;;;;;;;;;5034279;28;19948;-78
2021/04/04 10:08:22;;;;;;;;;;;;;;;;;;5034441;28;20347;-78
2021/04/04 10:10:48;;;;;;;;;;;;;;;;;;5034016;28;19919;-78
2021/04/04 10:13:14;;;;;;;;;;;;;;;;;;5034961;28;19963;-78
2021/04/04 10:15:39;;;;;;;;;;;;;;;;;;5021441;28;19908;-78
2021/04/04 10:18:05;;;;;;;;;;;;;;;;;;5037667;28;19909;-79
2021/04/04 10:20:51;;;;;;;;;;;;;;;;;;5037417;28;20000;-79
2021/04/04 10:23:16;;;;;;;;;;;;;;;;;;5037617;28;20363;-79
2021/04/04 10:25:58;;;;;;;;;;;;;;;;;;5037825;28;19915;-79
2021/04/04 10:28:23;;;;;;;;;;;;;;;;;;5037140;28;20007;-78
2021/04/04 10:30:55;;;;;;;;;;;;;;;;;;5021210;28;19963;-79
2021/04/04 10:33:22;;;;;;;;;;;;;;;;;;5020796;28;19913;-79
2021/04/04 10:35:47;;;;;;;;;;;;;;;;;;5021004;28;19908;-78
2021/04/04 10:38:14;;;;;;;;;;;;;;;;;;5037673;28;20003;-78
2021/04/04 10:40:49;;;;;;;;;;;;;;;;;;5020915;28;19970;-79
2021/04/04 10:43:15;;;;;;;;;;;;;;;;;;5053688;28;20390;-79
2021/04/04 10:45:55;;;;;;;;;;;;;;;;;;5020897;28;19915;-79
2021/04/04 10:48:22;;;;;;;;;;;;;;;;;;5053894;28;19959;-79
2021/04/04 10:50:48;;;;;;;;;;;;;;;;;;5053572;28;19912;-79
2021/04/04 10:53:13;;;;;;;;;;;;;;;;;;5037359;28;19944;-79
2021/04/04 10:55:39;;;;;;;;;;;;;;;;;;5037547;28;19958;-79
2021/04/04 10:58:04;;;;;;;;;;;;;;;;;;5020366;28;19915;-78
2021/04/04 11:00:29;;;;;;;;;;;;;;;;;;5020415;28;19909;-79
2021/04/04 11:02:55;;;;;;;;;;;;;;;;;;5020364;28;19909;-78
2021/04/04 11:05:20;;;;;;;;;;;;;;;;;;5020315;28;20008;-78
2021/04/04 11:07:46;;;;;;;;;;;;;;;;;;5020573;28;19908;-78
2021/04/04 11:10:11;;;;;;;;;;;;;;;;;;5020154;28;19909;-78
2021/04/04 11:12:37;;;;;;;;;;;;;;;;;;5053036;28;20015;-79
2021/04/04 11:15:03;;;;;;;;;;;;;;;;;;5036856;28;20366;-78
2021/04/04 11:17:28;;;;;;;;;;;;;;;;;;5053839;28;19913;-78
2021/04/04 11:19:54;;;;;;;;;;;;;;;;;;5019914;28;19913;-79
2021/04/04 11:22:20;;;;;;;;;;;;;;;;;;5036430;28;20011;-78
2021/04/04 11:25:07;;;;;;;;;;;;;;;;;;5019570;28;19962;-79
2021/04/04 11:27:40;;;;;;;;;;;;;;;;;;5036473;28;19912;-79
2021/04/04 11:30:06;;;;;;;;;;;;;;;;;;5036852;28;19912;-79
2021/04/04 11:32:32;;;;;;;;;;;;;;;;;;5036092;28;19915;-79
2021/04/04 11:34:58;;;;;;;;;;;;;;;;;;5036276;28;19913;-79
2021/04/04 11:37:26;;;;;;;;;;;;;;;;;;5052946;28;20400;-79
2021/04/04 11:40:11;;;;;;;;;;;;;;;;;;5052450;28;19999;-79
2021/04/04 11:42:36;;;;;;;;;;;;;;;;;;5052858;28;19909;-79
2021/04/04 11:45:02;;;;;;;;;;;;;;;;;;5053327;28;20019;-78
2021/04/04 11:47:27;;;;;;;;;;;;;;;;;;5053188;28;19912;-77
2021/04/04 11:49:56;;;;;;;;;;;;;;;;;;5052747;28;19927;-78
2021/04/04 11:52:21;;;;;;;;;;;;;;;;;;5052319;28;20375;-78
2021/04/04 11:54:49;;;;;;;;;;;;;;;;;;5052328;28;19930;-78
2021/04/04 11:57:31;;;;;;;;;;;;;;;;;;5052715;28;19909;-77
2021/04/04 12:00:03;;;;;;;;;;;;;;;;;;5019884;28;19954;-79
2021/04/04 12:02:28;;;;;;;;;;;;;;;;;;5052242;28;19962;-79
2021/04/04 12:05:01;;;;;;;;;;;;;;;;;;5035966;28;19987;-78
2021/04/04 12:07:26;;;;;;;;;;;;;;;;;;5035997;28;19979;-79
2021/04/04 12:09:51;;;;;;;;;;;;;;;;;;5018858;28;20330;-79
2021/04/04 12:12:16;;;;;;;;;;;;;;;;;;5051941;28;19909;-79
2021/04/04 12:14:55;;;;;;;;;;;;;;;;;;5035357;28;20378;-79
2021/04/04 12:17:20;;;;;;;;;;;;;;;;;;5052244;28;19912;-79
2021/04/04 12:19:46;;;;;;;;;;;;;;;;;;5035364;28;19965;-78
2021/04/04 12:22:11;;;;;;;;;;;;;;;;;;5051726;28;19938;-78
2021/04/04 12:24:40;;;;;;;;;;;;;;;;;;5035079;28;19971;-78
2021/04/04 12:27:05;;;;;;;;;;;;;;;;;;5035172;28;19948;-78
2021/04/04 12:29:40;;;;;;;;;;;;;;;;;;5051591;28;19956;-78
2021/04/04 12:32:06;;;;;;;;;;;;;;;;;;5051942;28;19934;-79
2021/04/04 12:34:38;;;;;;;;;;;;;;;;;;5018713;28;19915;-78
2021/04/04 12:37:03;;;;;;;;;;;;;;;;;;5034533;28;19920;-78
2021/04/04 12:39:28;;;;;;;;;;;;;;;;;;5034899;28;19912;-79
2021/04/04 12:41:54;;;;;;;;;;;;;;;;;;5018466;28;19908;-78
2021/04/04 12:44:35;;;;;;;;;;;;;;;;;;5015242;28;19909;-78
2021/04/04 12:47:07;;;;;;;;;;;;;;;;;;5015523;28;19916;-78
2021/04/04 12:49:32;;;;;;;;;;;;;;;;;;4998654;28;19917;-78
2021/04/04 12:51:58;;;;;;;;;;;;;;;;;;5015317;28;19928;-78
2021/04/04 12:54:23;;;;;;;;;;;;;;;;;;5015027;28;20377;-78
2021/04/04 12:56:49;;;;;;;;;;;;;;;;;;5031416;28;19920;-78
2021/04/04 12:59:14;;;;;;;;;;;;;;;;;;5031310;28;19909;-79
2021/04/04 13:01:42;;;;;;;;;;;;;;;;;;5032842;28;20268;-79
2021/04/04 13:04:17;;;;;;;;;;;;;;;;;;5034663;28;20429;-77
2021/04/04 13:06:42;;;;;;;;;;;;;;;;;;5034710;28;20377;-78
2021/04/04 13:09:09;;;;;;;;;;;;;;;;;;5034282;28;19913;-78
2021/04/04 13:11:35;;;;;;;;;;;;;;;;;;5034706;28;20384;-78
2021/04/04 13:14:00;;;;;;;;;;;;;;;;;;5031334;28;20004;-79
2021/04/04 13:16:26;;;;;;;;;;;;;;;;;;5014739;28;19958;-78
2021/04/04 13:18:51;;;;;;;;;;;;;;;;;;5031441;28;20386;-78
2021/04/04 13:21:17;;;;;;;;;;;;;;;;;;5030864;28;19920;-78
2021/04/04 13:23:44;;;;;;;;;;;;;;;;;;5047494;28;19917;-78
2021/04/04 13:26:13;;;;;;;;;;;;;;;;;;5047481;28;19920;-78
2021/04/04 13:28:38;;;;;;;;;;;;;;;;;;5030739;28;19913;-78
2021/04/04 13:31:10;;;;;;;;;;;;;;;;;;5031216;28;20382;-78
2021/04/04 13:33:36;;;;;;;;;;;;;;;;;;5031219;28;19909;-78
2021/04/04 13:36:22;;;;;;;;;;;;;;;;;;5030651;28;20367;-78
2021/04/04 13:38:51;;;;;;;;;;;;;;;;;;5030905;28;19915;-78
2021/04/04 13:41:17;;;;;;;;;;;;;;;;;;5030678;28;19909;-78
2021/04/04 13:43:47;;;;;;;;;;;;;;;;;;5045721;28;20393;-78
2021/04/04 13:46:26;;;;;;;;;;;;;;;;;;5051007;28;19959;-78
2021/04/04 13:48:53;;;;;;;;;;;;;;;;;;5038218;28;20352;-80
2021/04/04 13:51:18;;;;;;;;;;;;;;;;;;5054568;28;19923;-80
2021/04/04 13:53:44;;;;;;;;;;;;;;;;;;5038186;28;19912;-79
2021/04/04 13:56:10;;;;;;;;;;;;;;;;;;5052903;28;20104;-79
2021/04/04 13:58:37;;;;;;;;;;;;;;;;;;5054804;28;19908;-81
2021/04/04 14:01:22;;;;;;;;;;;;;;;;;;5071778;28;20386;-78
2021/04/04 14:03:47;;;;;;;;;;;;;;;;;;5055916;28;20287;-78
2021/04/04 14:06:12;;;;;;;;;;;;;;;;;;5054495;28;19999;-79
2021/04/04 14:08:38;;;;;;;;;;;;;;;;;;5054507;28;19986;-78
2021/04/04 14:11:04;;;;;;;;;;;;;;;;;;5037854;28;19932;-78
2021/04/04 14:13:29;;;;;;;;;;;;;;;;;;5021465;28;19908;-78
2021/04/04 14:15:55;;;;;;;;;;;;;;;;;;5054707;28;19909;-78
2021/04/04 14:18:27;;;;;;;;;;;;;;;;;;5054821;28;19909;-78
2021/04/04 14:20:52;;;;;;;;;;;;;;;;;;5022126;28;19959;-79
2021/04/04 14:23:18;;;;;;;;;;;;;;;;;;5025056;28;19959;-79
2021/04/04 14:25:43;;;;;;;;;;;;;;;;;;5034978;28;19966;-78
2021/04/04 14:28:08;;;;;;;;;;;;;;;;;;5035014;28;19912;-78
2021/04/04 14:30:33;;;;;;;;;;;;;;;;;;5035624;28;19908;-79
2021/04/04 14:32:59;;;;;;;;;;;;;;;;;;5020747;28;20263;-79
2021/04/04 14:35:25;;;;;;;;;;;;;;;;;;5021020;28;19960;-78
2021/04/04 14:37:50;;;;;;;;;;;;;;;;;;5021199;28;19936;-78
2021/04/04 14:40:15;;;;;;;;;;;;;;;;;;5053853;28;19951;-78
2021/04/04 14:42:41;;;;;;;;;;;;;;;;;;5033978;28;19940;-78
2021/04/04 14:45:06;;;;;;;;;;;;;;;;;;5050866;28;20003;-79
2021/04/04 14:47:32;;;;;;;;;;;;;;;;;;5034070;28;20435;-79
2021/04/04 14:49:57;;;;;;;;;;;;;;;;;;5033445;28;19921;-79
2021/04/04 14:52:22;;;;;;;;;;;;;;;;;;5050138;28;19917;-79
2021/04/04 14:54:47;;;;;;;;;;;;;;;;;;5016931;28;20122;-78
2021/04/04 14:57:13;;;;;;;;;;;;;;;;;;5016935;28;20000;-79
2021/04/04 14:59:38;;;;;;;;;;;;;;;;;;5019080;28;20011;-79
2021/04/04 15:02:19;;;;;;;;;;;;;;;;;;5032848;28;19920;-79
2021/04/04 15:04:45;;;;;;;;;;;;;;;;;;5053255;28;20002;-78
2021/04/04 15:07:10;;;;;;;;;;;;;;;;;;5053763;28;20363;-79
2021/04/04 15:09:35;;;;;;;;;;;;;;;;;;5053591;28;19908;-78
2021/04/04 15:12:01;;;;;;;;;;;;;;;;;;5020033;28;19909;-79
2021/04/04 15:14:27;;;;;;;;;;;;;;;;;;5052791;28;19947;-79
2021/04/04 15:16:52;;;;;;;;;;;;;;;;;;5036808;28;19954;-79
2021/04/04 15:19:17;;;;;;;;;;;;;;;;;;5052825;28;19921;-80
2021/04/04 15:21:43;;;;;;;;;;;;;;;;;;5036079;28;19921;-79
2021/04/04 15:24:08;;;;;;;;;;;;;;;;;;5036395;28;19974;-79
2021/04/04 15:26:34;;;;;;;;;;;;;;;;;;5019857;28;19909;-80
2021/04/04 15:28:59;;;;;;;;;;;;;;;;;;5019173;28;19988;-79
2021/04/04 15:31:24;;;;;;;;;;;;;;;;;;5036329;28;19908;-78
2021/04/04 15:33:49;;;;;;;;;;;;;;;;;;5036733;28;19908;-79
2021/04/04 15:36:15;;;;;;;;;;;;;;;;;;5036507;28;19916;-79
2021/04/04 15:38:41;;;;;;;;;;;;;;;;;;5037009;28;19916;-79
2021/04/04 15:41:06;;;;;;;;;;;;;;;;;;5053619;28;19908;-79
2021/04/04 15:43:31;;;;;;;;;;;;;;;;;;5032524;28;19909;-79
2021/04/04 15:45:57;;;;;;;;;;;;;;;;;;5049232;28;19934;-79
2021/04/04 15:48:22;;;;;;;;;;;;;;;;;;5048002;28;19952;-78
2021/04/04 15:50:47;;;;;;;;;;;;;;;;;;5035893;28;19928;-79
2021/04/04 15:53:13;;;;;;;;;;;;;;;;;;5052830;28;19916;-79
2021/04/04 15:55:39;;;;;;;;;;;;;;;;;;5052466;28;19916;-78
2021/04/04 15:58:04;;;;;;;;;;;;;;;;;;5052306;28;19908;-78
2021/04/04 16:00:30;;;;;;;;;;;;;;;;;;5035526;28;19916;-78
2021/04/04 16:02:56;;;;;;;;;;;;;;;;;;5051184;28;20061;-78
2021/04/04 16:05:21;;;;;;;;;;;;;;;;;;5035755;28;20301;-78
2021/04/04 16:07:46;;;;;;;;;;;;;;;;;;5035465;28;20322;-78
2021/04/04 16:10:25;;;;;;;;;;;;;;;;;;5034670;28;20294;-78
2021/04/04 16:12:52;;;;;;;;;;;;;;;;;;5037529;28;19915;-78
2021/04/04 16:15:17;;;;;;;;;;;;;;;;;;5007010;28;19920;-78
2021/04/04 16:17:43;;;;;;;;;;;;;;;;;;5049153;28;20007;-79
2021/04/04 16:20:10;;;;;;;;;;;;;;;;;;5032143;28;20366;-77
2021/04/04 16:22:35;;;;;;;;;;;;;;;;;;5048817;28;19921;-78
2021/04/04 16:25:00;;;;;;;;;;;;;;;;;;5020170;28;20282;-79
2021/04/04 16:27:26;;;;;;;;;;;;;;;;;;5040201;28;19920;-78
2021/04/04 16:29:51;;;;;;;;;;;;;;;;;;5035112;28;19908;-79
2021/04/04 16:32:16;;;;;;;;;;;;;;;;;;5034918;28;19914;-78
2021/04/04 16:34:41;;;;;;;;;;;;;;;;;;5018783;28;19908;-79
2021/04/04 16:37:07;;;;;;;;;;;;;;;;;;5035388;28;19909;-78
2021/04/04 16:39:32;;;;;;;;;;;;;;;;;;5017934;28;19912;-79
2021/04/04 16:41:57;;;;;;;;;;;;;;;;;;5034249;28;19920;-78
2021/04/04 16:44:23;;;;;;;;;;;;;;;;;;5068185;28;19912;-78
2021/04/04 16:46:48;;;;;;;;;;;;;;;;;;5051964;28;19923;-78
2021/04/04 16:49:13;;;;;;;;;;;;;;;;;;5051495;28;19912;-78
2021/04/04 16:51:40;;;;;;;;;;;;;;;;;;5068012;28;19917;-79
2021/04/04 16:54:06;;;;;;;;;;;;;;;;;;5067841;28;19908;-80
2021/04/04 16:56:31;;;;;;;;;;;;;;;;;;5051698;28;20285;-81